Terminal Aerodrome Forecast
Issued by NWS

Home | Current Version | Previous Version | Text Only | Print | Product List | Glossary On
Versions: 1 2 3 4 5 6 7 8 9 10 11 12 13 14 15 16 17 18 19 20 21 22 23
000
FTUS43 KGRB 152321
TAFRHI
TAF
KRHI 152321Z 1600/1624 VRB03KT P6SM SCT022 BKN080
      TEMPO 1604/1608 BKN022
     FM160800 VRB03KT P6SM BKN022 BKN080
     FM161000 09005KT 6SM -SN OVC022
     FM161600 10006KT 3SM -SN SCT015 OVC022
     FM161800 10005KT P6SM -SN OVC018=

USA.gov is the U.S. government's official web portal to all federal, state and local government web resources and services.